Time;durP1;ratioP1;P1;durP2;ratioP2;P2;SDS_P1;SDS_P2;PMS_P1;PMS_P2;Temp;Humidity;BMP_temperature;BMP_pressure;BME280_temperature;BME280_humidity;BME280_pressure;Samples;Min_cycle;Max_cycle;Signal;HPM_P1;HPM_P2
2021/05/17 07:16:19;;;;;;;6.13;1.25;;;13.90;99.90;;;;;;11990412;28;20041;-78
2021/05/17 07:28:13;;;;;;;11.40;1.60;;;14.70;99.90;;;;;;11978050;28;20741;-79
2021/05/17 07:34:00;;;;;;;2.45;1.10;;;14.50;99.90;;;;;;11988766;28;20052;-81
2021/05/17 07:39:48;;;;;;;6.18;1.13;;;14.60;99.90;;;;;;11974768;28;20476;-82
2021/05/17 07:45:34;;;;;;;9.65;1.60;;;14.60;99.90;;;;;;11948873;28;20041;-81
2021/05/17 07:51:22;;;;;;;3.58;1.10;;;15.00;99.90;;;;;;11967966;28;20422;-81
2021/05/17 07:57:09;;;;;;;7.22;1.20;;;15.00;99.90;;;;;;11983823;28;20060;-81
2021/05/17 08:02:58;;;;;;;4.28;1.25;;;15.10;99.90;;;;;;11927058;28;20639;-80
2021/05/17 08:08:44;;;;;;;3.38;0.88;;;15.30;99.90;;;;;;11962686;28;20037;-80
2021/05/17 08:14:32;;;;;;;6.20;1.13;;;15.50;99.90;;;;;;11951031;28;20054;-90
2021/05/17 08:26:46;;;;;;;1.77;0.70;;;15.30;99.90;;;;;;11867256;28;20133;-80
2021/05/17 08:32:39;;;;;;;2.75;0.90;;;15.10;99.90;;;;;;11893245;28;20054;-85
2021/05/17 08:38:26;;;;;;;;;;;15.30;99.90;;;;;;11854639;28;20602;-83
2021/05/17 08:44:12;;;;;;;4.38;0.80;;;15.10;99.90;;;;;;11913639;28;19984;-83
2021/05/17 08:50:03;;;;;;;8.18;1.73;;;15.20;99.90;;;;;;11900052;28;20061;-80
2021/05/17 08:55:49;;;;;;;9.82;1.20;;;15.10;99.90;;;;;;11896518;28;20054;-80
2021/05/17 09:01:41;;;;;;;5.82;1.08;;;14.90;99.90;;;;;;11918460;28;20049;-79
2021/05/17 09:07:34;;;;;;;12.45;1.70;;;14.90;99.90;;;;;;11968050;28;20066;-80
2021/05/17 09:13:21;;;;;;;7.53;1.00;;;15.00;99.90;;;;;;11951447;28;20056;-80
2021/05/17 09:19:16;;;;;;;9.45;1.40;;;15.50;99.90;;;;;;11951807;28;20047;-80
2021/05/17 09:25:05;;;;;;;8.68;2.55;;;15.40;99.90;;;;;;11931744;28;20584;-81
2021/05/17 09:30:53;;;;;;;3.53;0.70;;;15.30;99.90;;;;;;11940106;28;20053;-81
2021/05/17 09:37:02;;;;;;;2.83;0.90;;;15.30;99.90;;;;;;11909563;28;20057;-79
2021/05/17 09:43:03;;;;;;;4.70;0.82;;;15.10;99.90;;;;;;11914214;28;20045;-80
2021/05/17 09:48:49;;;;;;;9.52;1.40;;;15.00;99.90;;;;;;11922545;28;20057;-81
2021/05/17 09:54:59;;;;;;;3.40;1.10;;;15.20;99.90;;;;;;11960039;28;20107;-83
2021/05/17 10:00:46;;;;;;;7.82;1.25;;;14.80;99.90;;;;;;11956065;28;20044;-80
2021/05/17 10:06:33;;;;;;;3.50;1.33;;;15.00;99.90;;;;;;11986009;28;20068;-82
2021/05/17 10:12:20;;;;;;;4.47;0.90;;;15.50;99.90;;;;;;11961552;28;20076;-84
2021/05/17 10:18:07;;;;;;;5.05;1.20;;;16.00;99.90;;;;;;11952432;28;20053;-83
2021/05/17 10:23:54;;;;;;;3.10;1.20;;;16.50;99.90;;;;;;11955794;28;20049;-82
2021/05/17 10:29:41;;;;;;;5.05;1.00;;;16.60;99.90;;;;;;11941802;28;20056;-83
2021/05/17 10:35:30;;;;;;;4.10;1.15;;;16.30;99.90;;;;;;11955457;28;20056;-83
2021/05/17 10:41:29;;;;;;;6.38;1.33;;;15.70;99.90;;;;;;11953030;28;20423;-82
2021/05/17 10:47:28;;;;;;;6.00;1.42;;;14.90;99.90;;;;;;11956183;28;20516;-82
2021/05/17 10:53:46;;;;;;;3.53;1.30;;;14.80;99.90;;;;;;11953197;28;20057;-82
2021/05/17 11:00:36;;;;;;;9.15;1.90;;;14.70;99.90;;;;;;11947800;28;20060;-84
2021/05/17 11:06:26;;;;;;;4.90;1.23;;;15.20;99.90;;;;;;11821885;28;20457;-85
2021/05/17 11:13:03;;;;;;;5.35;1.60;;;15.70;99.90;;;;;;11836307;28;20808;-85
2021/05/17 11:38:22;;;;;;;4.32;1.15;;;14.10;99.90;;;;;;11341974;29;20533;-83
2021/05/17 11:44:22;;;;;;;4.90;1.05;;;13.80;99.90;;;;;;11503844;29;20057;-82
2021/05/17 11:50:10;;;;;;;3.20;1.00;;;13.90;99.90;;;;;;11550356;29;20555;-83
2021/05/17 11:56:03;;;;;;;4.00;0.95;;;14.20;99.90;;;;;;11652746;29;20658;-83
2021/05/17 12:01:52;;;;;;;5.95;1.35;;;14.30;99.90;;;;;;11673383;29;20067;-83
2021/05/17 12:07:43;;;;;;;3.60;1.50;;;14.70;99.90;;;;;;11704006;29;20055;-87
2021/05/17 12:13:30;;;;;;;4.45;1.50;;;15.20;99.90;;;;;;11824483;28;20050;-87
2021/05/17 12:19:18;;;;;;;3.30;1.50;;;15.60;99.90;;;;;;11931611;28;20392;-87
2021/05/17 12:25:07;;;;;;;5.88;1.60;;;15.80;99.90;;;;;;11930106;28;20046;-87
2021/05/17 12:31:03;;;;;;;10.40;2.03;;;15.40;99.90;;;;;;11886629;28;20492;-85
2021/05/17 12:36:52;;;;;;;7.68;2.33;;;14.60;99.90;;;;;;11941817;28;20496;-84
2021/05/17 12:42:39;;;;;;;7.40;2.30;;;14.30;99.90;;;;;;11935093;28;20062;-84
2021/05/17 12:48:33;;;;;;;5.57;1.35;;;14.70;99.90;;;;;;11939838;28;20073;-84
2021/05/17 12:54:22;;;;;;;7.38;1.40;;;15.00;99.90;;;;;;11944159;28;20053;-82
2021/05/17 13:00:10;;;;;;;2.60;1.05;;;15.20;99.90;;;;;;11937534;28;20057;-85
2021/05/17 13:06:01;;;;;;;2.42;0.88;;;15.30;99.90;;;;;;11945333;28;20510;-86
2021/05/17 13:12:09;;;;;;;2.55;1.10;;;15.60;99.90;;;;;;11905753;28;20053;-84
2021/05/17 13:17:56;;;;;;;2.10;1.10;;;15.30;99.90;;;;;;11905683;28;20056;-86
2021/05/17 13:24:12;;;;;;;8.38;1.05;;;15.80;99.90;;;;;;11933933;28;20136;-86
2021/05/17 13:36:09;;;;;;;3.67;0.77;;;15.20;99.90;;;;;;11793398;28;20034;-81
2021/05/17 13:42:00;;;;;;;4.20;1.23;;;14.40;99.90;;;;;;11926773;28;20155;-83
2021/05/17 13:47:52;;;;;;;3.63;1.23;;;14.00;99.90;;;;;;11931158;28;20103;-84
2021/05/17 13:53:41;;;;;;;6.15;1.60;;;14.20;99.90;;;;;;11900085;28;20049;-85
2021/05/17 13:59:30;;;;;;;3.58;1.05;;;14.40;99.90;;;;;;11938603;28;20041;-85
2021/05/17 14:05:17;;;;;;;6.20;1.45;;;14.90;99.90;;;;;;11909555;28;20088;-85
2021/05/17 14:11:03;;;;;;;3.88;1.23;;;15.70;99.90;;;;;;11842358;28;21074;-85
2021/05/17 14:16:56;;;;;;;3.05;1.10;;;15.90;99.90;;;;;;11910090;28;20293;-84
2021/05/17 14:22:53;;;;;;;8.70;1.50;;;15.80;99.90;;;;;;11940550;28;20045;-84
2021/05/17 14:28:47;;;;;;;2.78;1.40;;;15.30;99.90;;;;;;11881007;28;20058;-85
2021/05/17 14:34:40;;;;;;;2.30;1.15;;;15.30;99.90;;;;;;11839624;28;20050;-85
2021/05/17 14:40:29;;;;;;;;;;;15.60;99.90;;;;;;11934886;28;20053;-85
2021/05/17 14:46:44;;;;;;;7.72;1.50;;;15.70;99.90;;;;;;11876554;28;20296;-85
2021/05/17 14:52:31;;;;;;;3.28;1.15;;;16.20;99.90;;;;;;11921603;28;20065;-84
2021/05/17 14:58:29;;;;;;;1.95;1.00;;;16.40;99.90;;;;;;11866154;28;20061;-86
2021/05/17 15:04:20;;;;;;;15.18;1.10;;;16.50;99.90;;;;;;11881141;28;20054;-85
2021/05/17 15:10:10;;;;;;;5.03;1.20;;;16.40;99.90;;;;;;11912591;28;20452;-86
2021/05/17 15:16:00;;;;;;;1.88;1.10;;;16.20;99.90;;;;;;11883637;28;20057;-86
2021/05/17 15:21:49;;;;;;;2.30;1.38;;;16.20;99.90;;;;;;11908985;28;20049;-86
2021/05/17 15:27:37;;;;;;;3.03;1.52;;;16.70;99.90;;;;;;11885275;28;20536;-87
2021/05/17 15:33:27;;;;;;;3.20;1.17;;;16.80;99.90;;;;;;11902110;28;20056;-87
2021/05/17 15:39:14;;;;;;;5.18;1.30;;;17.40;99.90;;;;;;11903220;28;20041;-87
2021/05/17 15:45:01;;;;;;;2.55;1.20;;;17.90;99.90;;;;;;11899690;28;20053;-87
2021/05/17 15:51:05;;;;;;;4.13;0.82;;;18.50;99.90;;;;;;11899559;28;20051;-87
2021/05/17 15:57:07;;;;;;;2.40;1.00;;;19.10;99.90;;;;;;11872685;28;20049;-88
2021/05/17 16:03:03;;;;;;;3.33;1.27;;;19.40;99.90;;;;;;11857767;28;20528;-87
2021/05/17 16:08:54;;;;;;;2.30;0.90;;;20.00;99.40;;;;;;11882818;28;20111;-87
2021/05/17 16:14:58;;;;;;;2.88;1.23;;;19.50;95.20;;;;;;11929376;28;20061;-88
2021/05/17 16:26:52;;;;;;;4.32;1.17;;;16.80;99.90;;;;;;11936069;28;20378;-86
2021/05/17 16:32:42;;;;;;;16.48;8.68;;;18.50;99.90;;;;;;11888866;28;20054;-82
2021/05/17 16:38:45;;;;;;;3.75;1.38;;;21.40;95.30;;;;;;11854497;28;20129;-86
2021/05/17 16:45:13;;;;;;;3.63;1.80;;;20.00;93.20;;;;;;11930268;28;20536;-86
2021/05/17 16:51:07;;;;;;;5.85;1.40;;;18.40;95.20;;;;;;11856828;28;20054;-85
2021/05/17 16:57:12;;;;;;;5.00;1.60;;;17.80;97.30;;;;;;11884406;28;20051;-85
2021/05/17 17:02:59;;;;;;;3.38;1.23;;;17.50;99.10;;;;;;11863717;28;20144;-85
2021/05/17 17:08:45;;;;;;;4.78;1.23;;;17.20;99.60;;;;;;11900018;28;20105;-84
2021/05/17 17:21:33;;;;;;;;;;;;;;;;;;;;;
2021/05/17 17:28:13;;;;;;;4.53;1.40;;;24.00;80.10;;;;;;11826750;28;19929;-87
2021/05/17 17:54:31;;;;;;;3.92;1.13;;;19.40;93.90;;;;;;11436711;29;20170;-87
2021/05/17 18:12:31;;;;;;;6.50;1.67;;;25.20;67.20;;;;;;11526654;29;20127;-82
2021/05/17 18:18:38;;;;;;;38.92;22.00;;;23.00;73.30;;;;;;11590554;29;20177;-88
2021/05/17 18:24:26;;;;;;;6.80;2.30;;;23.60;72.10;;;;;;11863809;28;20056;-85
2021/05/17 18:30:17;;;;;;;6.35;1.73;;;25.20;68.20;;;;;;11927202;28;20919;-85
2021/05/17 18:36:08;;;;;;;7.00;1.88;;;26.00;66.20;;;;;;11960804;28;20184;-92
2021/05/17 18:41:56;;;;;;;3.83;1.90;;;26.00;63.80;;;;;;11942697;28;20282;-90
2021/05/17 18:47:44;;;;;;;6.70;1.77;;;25.40;64.80;;;;;;11931219;28;20052;-91
2021/05/17 18:53:37;;;;;;;7.57;1.75;;;23.80;69.20;;;;;;11901965;28;20065;-89
2021/05/17 19:06:30;;;;;;;10.45;2.13;;;20.10;84.10;;;;;;13868766;23;21543;-82
2021/05/17 19:12:21;;;;;;;4.97;1.80;;;18.50;91.30;;;;;;11841656;28;20050;-81
2021/05/17 19:18:08;;;;;;;6.95;2.33;;;17.90;94.70;;;;;;11861864;28;20068;-82
2021/05/17 19:23:55;;;;;;;8.05;2.35;;;17.60;98.30;;;;;;11871273;28;20069;-82
2021/05/17 19:29:44;;;;;;;9.05;2.10;;;17.40;99.90;;;;;;11869639;28;20058;-83
2021/05/17 19:35:31;;;;;;;9.13;2.80;;;17.30;99.90;;;;;;11867222;28;20057;-83
2021/05/17 19:41:23;;;;;;;5.80;2.20;;;17.10;99.90;;;;;;11881936;28;20094;-82
2021/05/17 19:47:13;;;;;;;7.47;2.30;;;16.90;99.90;;;;;;11873553;28;20085;-83
2021/05/17 19:52:59;;;;;;;10.60;2.50;;;16.80;99.90;;;;;;11881703;28;20058;-81
2021/05/17 19:58:47;;;;;;;15.93;3.55;;;16.70;99.90;;;;;;11874742;28;31837;-82
2021/05/17 20:04:35;;;;;;;6.35;2.78;;;16.60;99.90;;;;;;11885135;28;20054;-81
2021/05/17 20:10:23;;;;;;;13.27;2.60;;;16.50;99.90;;;;;;11886628;28;20056;-83
2021/05/17 20:16:10;;;;;;;9.32;2.22;;;16.40;99.90;;;;;;11887393;28;20169;-82
2021/05/17 20:21:57;;;;;;;5.88;1.48;;;16.30;99.90;;;;;;11886324;28;20050;-82
2021/05/17 20:27:44;;;;;;;9.23;1.85;;;16.10;99.90;;;;;;11884081;28;20100;-80
2021/05/17 20:33:43;;;;;;;6.85;1.83;;;15.90;99.90;;;;;;11885790;28;20053;-81
2021/05/17 20:39:30;;;;;;;4.18;1.67;;;15.90;99.90;;;;;;11889750;28;20518;-82
2021/05/17 20:45:17;;;;;;;5.22;1.52;;;15.90;99.90;;;;;;11876912;28;20058;-81
2021/05/17 20:51:08;;;;;;;4.70;1.45;;;15.60;99.90;;;;;;11866535;28;20144;-80
2021/05/17 20:56:55;;;;;;;7.03;1.83;;;15.70;99.90;;;;;;11880470;28;20052;-82
2021/05/17 21:02:44;;;;;;;7.85;1.58;;;15.70;99.90;;;;;;11883803;28;20528;-82
2021/05/17 21:08:32;;;;;;;5.18;1.40;;;15.50;99.90;;;;;;11893695;28;20058;-82
2021/05/17 21:14:21;;;;;;;6.95;1.65;;;15.50;99.90;;;;;;11896922;28;20523;-82
2021/05/17 21:20:10;;;;;;;6.53;1.70;;;15.30;99.90;;;;;;11889385;28;20171;-82
2021/05/17 21:25:58;;;;;;;10.90;2.08;;;15.10;99.90;;;;;;11878114;28;20069;-83
2021/05/17 21:31:44;;;;;;;9.18;2.10;;;15.20;99.90;;;;;;11879793;28;20045;-84
2021/05/17 21:37:31;;;;;;;4.20;1.65;;;15.30;99.90;;;;;;11881584;28;20057;-82
2021/05/17 21:43:18;;;;;;;7.28;1.95;;;15.30;99.90;;;;;;11880694;28;20132;-82
2021/05/17 21:49:05;;;;;;;6.97;1.67;;;15.30;99.90;;;;;;11876587;28;20052;-82
2021/05/17 21:54:52;;;;;;;10.25;1.80;;;15.30;99.90;;;;;;11884990;28;20080;-82
2021/05/17 22:00:44;;;;;;;13.02;2.00;;;15.30;99.90;;;;;;11878862;28;20370;-83
2021/05/17 22:06:33;;;;;;;6.38;1.58;;;15.20;99.90;;;;;;11851031;28;20440;-81
2021/05/17 22:12:19;;;;;;;10.75;2.92;;;15.20;99.90;;;;;;11874851;28;20109;-82
2021/05/17 22:18:07;;;;;;;9.90;1.98;;;15.20;99.90;;;;;;11863525;28;20085;-82
2021/05/17 22:23:54;;;;;;;5.55;1.80;;;15.30;99.90;;;;;;11865553;28;20492;-82
2021/05/17 22:29:41;;;;;;;7.80;1.95;;;15.30;99.90;;;;;;11878414;28;20516;-82
2021/05/17 22:35:28;;;;;;;9.60;1.90;;;15.20;99.90;;;;;;11878236;28;20112;-83
2021/05/17 22:41:15;;;;;;;7.40;1.70;;;15.10;99.90;;;;;;11880331;28;20046;-82
2021/05/17 22:47:01;;;;;;;12.98;2.05;;;15.00;99.90;;;;;;11880251;28;20586;-82
2021/05/17 22:52:49;;;;;;;10.38;1.60;;;15.00;99.90;;;;;;11873809;28;20511;-84
2021/05/17 22:58:35;;;;;;;10.95;1.90;;;15.00;99.90;;;;;;11878994;28;20479;-77
2021/05/17 23:04:21;;;;;;;8.07;1.80;;;15.00;99.90;;;;;;11871728;28;20053;-76
2021/05/17 23:10:10;;;;;;;13.93;1.77;;;15.10;99.90;;;;;;11867066;28;20050;-79
2021/05/17 23:15:57;;;;;;;9.75;2.08;;;15.10;99.90;;;;;;11874888;28;20116;-78
2021/05/17 23:21:46;;;;;;;8.75;1.65;;;15.10;99.90;;;;;;11886506;28;20157;-78
2021/05/17 23:33:41;;;;;;;8.65;1.63;;;15.20;99.90;;;;;;11906171;28;20056;-84
2021/05/17 23:39:27;;;;;;;6.40;1.83;;;15.20;99.90;;;;;;11902036;28;20072;-85
2021/05/17 23:45:15;;;;;;;10.38;2.08;;;15.20;99.90;;;;;;11896775;28;20057;-85
2021/05/17 23:51:02;;;;;;;11.32;1.77;;;15.10;99.90;;;;;;11899673;28;20038;-85
2021/05/17 23:56:48;;;;;;;6.03;1.63;;;15.20;99.90;;;;;;11897279;28;20046;-84
